Time;durP1;ratioP1;P1;durP2;ratioP2;P2;SDS_P1;SDS_P2;PMS_P1;PMS_P2;Temp;Humidity;BMP_temperature;BMP_pressure;BME280_temperature;BME280_humidity;BME280_pressure;Samples;Min_cycle;Max_cycle;Signal;HPM_P1;HPM_P2
2022/11/04 00:01:21;;;;;;;5.05;1.75;;;;;;;;;;5123529;27;20051;-70
2022/11/04 00:03:47;;;;;;;1.20;1.10;;;;;;;;;;5110622;27;20065;-69
2022/11/04 00:06:13;;;;;;;2.47;1.60;;;;;;;;;;5111591;28;20089;-70
2022/11/04 00:08:39;;;;;;;1.75;1.60;;;;;;;;;;5106986;27;20055;-70
2022/11/04 00:13:50;;;;;;;2.05;1.70;;;;;;;;;;5097850;27;20055;-69
2022/11/04 00:19:01;;;;;;;2.05;1.35;;;;;;;;;;5098519;28;20079;-71
2022/11/04 00:29:43;;;;;;;2.22;1.00;;;;;;;;;;5116301;28;20054;-71
2022/11/04 00:34:54;;;;;;;4.13;1.20;;;;;;;;;;5113794;28;20072;-71
2022/11/04 00:37:20;;;;;;;2.47;1.17;;;;;;;;;;5109160;28;20046;-71
2022/11/04 00:39:46;;;;;;;1.85;1.25;;;;;;;;;;5113491;28;20044;-70
2022/11/04 00:42:12;;;;;;;3.28;1.40;;;;;;;;;;5106801;28;20055;-70
2022/11/04 00:44:38;;;;;;;2.58;1.00;;;;;;;;;;5116429;28;20039;-72
2022/11/04 00:47:05;;;;;;;1.35;0.70;;;;;;;;;;5104157;28;20036;-72
2022/11/04 00:49:31;;;;;;;3.80;0.90;;;;;;;;;;5108932;27;20077;-71
2022/11/04 00:51:57;;;;;;;1.85;0.50;;;;;;;;;;5120780;27;20040;-71
2022/11/04 00:54:23;;;;;;;3.00;0.60;;;;;;;;;;5107255;27;20079;-73
2022/11/04 00:56:49;;;;;;;0.93;0.40;;;;;;;;;;5097201;28;20517;-71
2022/11/04 00:59:15;;;;;;;0.63;0.40;;;;;;;;;;5109303;27;20048;-71
2022/11/04 01:01:41;;;;;;;2.03;0.60;;;;;;;;;;5107618;27;20070;-71
2022/11/04 01:04:07;;;;;;;2.42;0.75;;;;;;;;;;5117215;27;20078;-71
2022/11/04 01:06:33;;;;;;;1.50;1.00;;;;;;;;;;5116233;27;20108;-73
2022/11/04 01:09:00;;;;;;;1.92;0.95;;;;;;;;;;5112657;27;20176;-70
2022/11/04 01:11:28;;;;;;;2.17;1.30;;;;;;;;;;5114781;27;20043;-71
2022/11/04 01:13:54;;;;;;;2.75;1.52;;;;;;;;;;5114200;27;20129;-71
2022/11/04 01:16:21;;;;;;;3.55;1.20;;;;;;;;;;5109817;28;20044;-70
2022/11/04 01:18:47;;;;;;;1.90;0.95;;;;;;;;;;5117306;27;20059;-70
2022/11/04 01:21:14;;;;;;;2.50;1.00;;;;;;;;;;5110376;27;20096;-72
2022/11/04 01:23:40;;;;;;;3.83;1.15;;;;;;;;;;5112735;27;20054;-70
2022/11/04 01:26:07;;;;;;;1.80;0.93;;;;;;;;;;5124542;27;20043;-69
2022/11/04 01:28:33;;;;;;;3.15;0.95;;;;;;;;;;5112273;27;20050;-69
2022/11/04 01:30:59;;;;;;;3.85;1.10;;;;;;;;;;5114927;27;20040;-69
2022/11/04 01:33:25;;;;;;;2.92;1.00;;;;;;;;;;5113730;27;20080;-69
2022/11/04 01:35:51;;;;;;;3.92;1.05;;;;;;;;;;5109083;28;20046;-69
2022/11/04 01:38:17;;;;;;;5.28;1.58;;;;;;;;;;5094015;28;20056;-69
2022/11/04 01:40:43;;;;;;;5.53;1.80;;;;;;;;;;5104566;27;20040;-69
2022/11/04 01:43:14;;;;;;;6.28;1.85;;;;;;;;;;5119845;27;20059;-68
2022/11/04 01:45:41;;;;;;;3.40;1.30;;;;;;;;;;5115576;27;20100;-69
2022/11/04 01:48:21;;;;;;;3.20;1.20;;;;;;;;;;5104411;27;20146;-68
2022/11/04 01:50:48;;;;;;;2.80;1.33;;;;;;;;;;5098862;28;20036;-68
2022/11/04 01:53:28;;;;;;;5.03;1.60;;;;;;;;;;5122413;27;20039;-70
2022/11/04 01:55:58;;;;;;;7.53;1.90;;;;;;;;;;5102057;28;20039;-69
2022/11/04 01:58:27;;;;;;;3.80;1.60;;;;;;;;;;5114024;27;20039;-69
2022/11/04 02:00:53;;;;;;;5.05;1.40;;;;;;;;;;5105504;27;20063;-71
2022/11/04 02:03:28;;;;;;;4.95;1.40;;;;;;;;;;5112992;27;20054;-70
2022/11/04 02:05:54;;;;;;;4.68;1.38;;;;;;;;;;5120099;27;20039;-69
2022/11/04 02:08:21;;;;;;;3.22;1.60;;;;;;;;;;5112100;27;20039;-69
2022/11/04 02:10:54;;;;;;;5.80;1.52;;;;;;;;;;5113543;27;20061;-70
2022/11/04 02:13:20;;;;;;;3.38;0.85;;;;;;;;;;5107549;27;20070;-69
2022/11/04 02:15:46;;;;;;;2.95;1.10;;;;;;;;;;5107924;27;20468;-68
2022/11/04 02:18:24;;;;;;;2.85;1.00;;;;;;;;;;5118615;27;20079;-68
2022/11/04 02:20:59;;;;;;;1.88;0.88;;;;;;;;;;5112341;27;20378;-68
2022/11/04 02:23:44;;;;;;;4.97;1.10;;;;;;;;;;5091670;28;20043;-69
2022/11/04 02:26:32;;;;;;;2.47;1.23;;;;;;;;;;5119686;27;20043;-69
2022/11/04 02:29:17;;;;;;;4.00;1.60;;;;;;;;;;5118205;27;20101;-71
2022/11/04 02:31:52;;;;;;;2.85;1.65;;;;;;;;;;5104202;27;20054;-68
2022/11/04 02:34:30;;;;;;;3.75;2.50;;;;;;;;;;5116176;27;20428;-72
2022/11/04 02:37:09;;;;;;;5.03;2.83;;;;;;;;;;5109167;27;20051;-69
2022/11/04 02:39:54;;;;;;;7.05;3.17;;;;;;;;;;5102854;27;20047;-68
2022/11/04 02:42:24;;;;;;;5.57;2.97;;;;;;;;;;5118548;27;20039;-69
2022/11/04 02:45:09;;;;;;;5.85;3.15;;;;;;;;;;5115680;27;20043;-70
2022/11/04 02:47:36;;;;;;;4.75;3.35;;;;;;;;;;5096260;28;20047;-68
2022/11/04 02:50:06;;;;;;;3.78;1.90;;;;;;;;;;5111498;27;20036;-68
2022/11/04 02:52:39;;;;;;;3.63;1.40;;;;;;;;;;5123618;27;20054;-70
2022/11/04 02:55:15;;;;;;;3.88;0.90;;;;;;;;;;5121033;27;20063;-69
2022/11/04 02:57:42;;;;;;;1.75;0.80;;;;;;;;;;5107707;27;20044;-69
2022/11/04 03:00:09;;;;;;;2.60;1.02;;;;;;;;;;5105948;27;20512;-71
2022/11/04 03:02:43;;;;;;;2.78;1.35;;;;;;;;;;5115181;27;20043;-71
2022/11/04 03:05:12;;;;;;;5.00;1.80;;;;;;;;;;5112103;27;20036;-69
2022/11/04 03:07:40;;;;;;;6.43;2.47;;;;;;;;;;5114072;27;20062;-72
2022/11/04 03:10:10;;;;;;;5.75;2.70;;;;;;;;;;5089032;28;20094;-72
2022/11/04 03:12:39;;;;;;;5.93;2.85;;;;;;;;;;5110393;27;20052;-70
2022/11/04 03:15:09;;;;;;;5.90;2.90;;;;;;;;;;5097734;27;20048;-72
2022/11/04 03:17:55;;;;;;;7.85;3.00;;;;;;;;;;5106024;27;20055;-71
2022/11/04 03:20:23;;;;;;;3.67;2.60;;;;;;;;;;5110257;28;20650;-71
2022/11/04 03:22:54;;;;;;;4.05;2.00;;;;;;;;;;5101281;27;20048;-70
2022/11/04 03:25:21;;;;;;;3.08;1.80;;;;;;;;;;5120925;27;20560;-71
2022/11/04 03:27:50;;;;;;;4.55;1.58;;;;;;;;;;5106909;28;20097;-71
2022/11/04 03:30:17;;;;;;;3.58;1.67;;;;;;;;;;5116335;27;20043;-71
2022/11/04 03:32:43;;;;;;;4.53;1.50;;;;;;;;;;5113611;27;20138;-72
2022/11/04 03:35:10;;;;;;;2.88;1.38;;;;;;;;;;5112501;27;20130;-71
2022/11/04 03:37:36;;;;;;;3.50;1.20;;;;;;;;;;5112643;27;20535;-71
2022/11/04 03:40:03;;;;;;;5.00;1.60;;;;;;;;;;5114575;27;20052;-71
2022/11/04 03:42:30;;;;;;;1.88;1.20;;;;;;;;;;5117266;27;20054;-72
2022/11/04 03:44:56;;;;;;;3.13;1.00;;;;;;;;;;5103430;27;20498;-72
2022/11/04 03:47:26;;;;;;;1.50;0.77;;;;;;;;;;5115762;27;20066;-71
2022/11/04 03:50:13;;;;;;;0.95;0.80;;;;;;;;;;5113504;27;20508;-70
2022/11/04 03:52:39;;;;;;;2.05;0.98;;;;;;;;;;5103879;27;20055;-72
2022/11/04 03:55:06;;;;;;;0.77;0.60;;;;;;;;;;5110559;27;20040;-72
2022/11/04 03:57:43;;;;;;;5.95;0.75;;;;;;;;;;5102261;27;20050;-71
2022/11/04 04:00:09;;;;;;;3.42;0.85;;;;;;;;;;5109422;28;20047;-72
2022/11/04 04:02:38;;;;;;;3.47;0.70;;;;;;;;;;5102968;28;20130;-71
2022/11/04 04:05:23;;;;;;;1.30;0.80;;;;;;;;;;5108735;28;20077;-71
2022/11/04 04:07:52;;;;;;;3.97;0.70;;;;;;;;;;5101478;27;20165;-69
2022/11/04 04:10:39;;;;;;;4.55;1.05;;;;;;;;;;5119042;27;20053;-71
2022/11/04 04:13:09;;;;;;;0.77;0.57;;;;;;;;;;5114934;27;20083;-70
2022/11/04 04:15:55;;;;;;;1.10;0.60;;;;;;;;;;5112677;27;20047;-70
2022/11/04 04:18:42;;;;;;;1.90;0.90;;;;;;;;;;5103200;28;20047;-70
2022/11/04 04:21:11;;;;;;;3.20;0.88;;;;;;;;;;5110474;28;20043;-72
2022/11/04 04:29:10;;;;;;;3.10;1.60;;;;;;;;;;5102473;27;20040;-71
2022/11/04 04:31:49;;;;;;;4.10;1.77;;;;;;;;;;5114573;27;20040;-70
2022/11/04 04:34:23;;;;;;;3.15;2.10;;;;;;;;;;5115019;27;20043;-72
2022/11/04 04:36:52;;;;;;;4.68;1.80;;;;;;;;;;5104091;27;20486;-71
2022/11/04 04:44:58;;;;;;;2.95;1.42;;;;;;;;;;5105713;27;20040;-71
2022/11/04 04:47:26;;;;;;;1.65;1.00;;;;;;;;;;5122927;27;20050;-70
2022/11/04 04:49:52;;;;;;;5.05;1.00;;;;;;;;;;5118806;27;20549;-71
2022/11/04 04:52:19;;;;;;;3.40;1.00;;;;;;;;;;5124589;27;20409;-70
2022/11/04 04:54:45;;;;;;;2.65;1.08;;;;;;;;;;5109090;27;20047;-71
2022/11/04 04:57:11;;;;;;;3.78;0.80;;;;;;;;;;5111301;27;20044;-71
2022/11/04 04:59:37;;;;;;;3.47;0.70;;;;;;;;;;5105726;28;20130;-71
2022/11/04 05:02:03;;;;;;;4.43;0.80;;;;;;;;;;5114804;27;20058;-71
2022/11/04 05:04:29;;;;;;;1.80;0.65;;;;;;;;;;5109872;27;20043;-71
2022/11/04 05:06:55;;;;;;;1.42;0.63;;;;;;;;;;5108006;27;20379;-71
2022/11/04 05:09:21;;;;;;;2.17;0.43;;;;;;;;;;5090974;27;20059;-71
2022/11/04 05:11:47;;;;;;;2.88;0.60;;;;;;;;;;5092285;28;20130;-72
2022/11/04 05:14:14;;;;;;;2.45;0.60;;;;;;;;;;5122597;27;20071;-72
2022/11/04 05:16:40;;;;;;;2.20;0.65;;;;;;;;;;5108801;27;20104;-71
2022/11/04 05:19:06;;;;;;;3.53;0.68;;;;;;;;;;5112885;27;20050;-71
2022/11/04 05:21:32;;;;;;;4.03;0.60;;;;;;;;;;5120157;27;20053;-71
2022/11/04 05:23:58;;;;;;;1.95;0.63;;;;;;;;;;5120439;27;20205;-71
2022/11/04 05:26:24;;;;;;;1.60;0.60;;;;;;;;;;5103392;27;20036;-71
2022/11/04 05:28:50;;;;;;;3.58;0.75;;;;;;;;;;5111307;27;20047;-71
2022/11/04 05:31:16;;;;;;;3.60;0.80;;;;;;;;;;5107646;27;20048;-71
2022/11/04 05:33:42;;;;;;;2.22;0.60;;;;;;;;;;5112144;27;20058;-71
2022/11/04 05:36:09;;;;;;;1.95;0.80;;;;;;;;;;5115221;27;20047;-71
2022/11/04 05:38:35;;;;;;;3.35;0.60;;;;;;;;;;5109099;27;20053;-71
2022/11/04 05:41:01;;;;;;;2.78;0.85;;;;;;;;;;5112832;27;20498;-69
2022/11/04 05:43:27;;;;;;;5.50;0.90;;;;;;;;;;5108850;27;20081;-72
2022/11/04 05:45:54;;;;;;;3.28;0.88;;;;;;;;;;5113406;27;20067;-71
2022/11/04 05:48:20;;;;;;;2.15;0.95;;;;;;;;;;5111762;28;20047;-72
2022/11/04 05:50:46;;;;;;;3.58;0.95;;;;;;;;;;5102410;27;20115;-72
2022/11/04 05:53:12;;;;;;;2.95;1.00;;;;;;;;;;5117776;27;20044;-72
2022/11/04 05:55:37;;;;;;;4.03;1.02;;;;;;;;;;5108204;27;20062;-68
2022/11/04 05:58:03;;;;;;;4.28;1.27;;;;;;;;;;5095842;28;20079;-71
2022/11/04 06:00:29;;;;;;;5.13;1.52;;;;;;;;;;5105248;27;20106;-71
2022/11/04 06:02:56;;;;;;;4.78;2.03;;;;;;;;;;5105287;27;20143;-72
2022/11/04 06:05:22;;;;;;;3.97;1.52;;;;;;;;;;5111902;27;20378;-72
2022/11/04 06:07:48;;;;;;;3.97;1.20;;;;;;;;;;5122453;27;20043;-72
2022/11/04 06:10:14;;;;;;;2.45;1.13;;;;;;;;;;5113550;27;20040;-72
2022/11/04 06:12:40;;;;;;;2.75;1.20;;;;;;;;;;5109902;27;20051;-72
2022/11/04 06:15:07;;;;;;;5.05;1.20;;;;;;;;;;5125330;27;20118;-73
2022/11/04 06:17:33;;;;;;;3.08;1.20;;;;;;;;;;5117769;27;20541;-72
2022/11/04 06:19:59;;;;;;;1.98;1.13;;;;;;;;;;5116658;27;20048;-73
2022/11/04 06:22:25;;;;;;;2.65;1.25;;;;;;;;;;5104782;28;20138;-73
2022/11/04 06:24:51;;;;;;;5.38;1.50;;;;;;;;;;5102136;27;20079;-73
2022/11/04 06:27:17;;;;;;;3.05;1.30;;;;;;;;;;5115633;27;20144;-73
2022/11/04 06:29:43;;;;;;;2.35;1.23;;;;;;;;;;5108993;27;20144;-73
2022/11/04 06:32:10;;;;;;;3.60;1.38;;;;;;;;;;5114546;27;20417;-73
2022/11/04 06:34:36;;;;;;;3.17;1.42;;;;;;;;;;5103895;27;20059;-73
2022/11/04 06:37:02;;;;;;;4.18;1.63;;;;;;;;;;5085713;27;20055;-73
2022/11/04 06:39:28;;;;;;;3.67;1.13;;;;;;;;;;5119064;27;20061;-73
2022/11/04 06:41:54;;;;;;;1.90;1.17;;;;;;;;;;5095622;27;20048;-70
2022/11/04 06:44:20;;;;;;;2.10;1.10;;;;;;;;;;5100167;27;20043;-70
2022/11/04 06:46:46;;;;;;;3.95;1.25;;;;;;;;;;5095150;27;20070;-73
2022/11/04 06:49:13;;;;;;;1.40;0.95;;;;;;;;;;5121676;27;20067;-71
2022/11/04 06:51:39;;;;;;;2.50;0.90;;;;;;;;;;5083007;28;20035;-74
2022/11/04 06:54:06;;;;;;;1.90;0.73;;;;;;;;;;5093869;28;20058;-71
2022/11/04 06:56:32;;;;;;;2.28;0.73;;;;;;;;;;5095519;28;20059;-72
2022/11/04 06:58:58;;;;;;;2.42;0.80;;;;;;;;;;5107983;27;20086;-71
2022/11/04 07:01:25;;;;;;;2.60;1.05;;;;;;;;;;5099788;27;20048;-72
2022/11/04 07:03:52;;;;;;;1.20;1.10;;;;;;;;;;5098168;27;20044;-69
2022/11/04 07:06:19;;;;;;;2.70;1.00;;;;;;;;;;5100869;27;20074;-71
2022/11/04 07:08:45;;;;;;;4.35;1.30;;;;;;;;;;5097860;27;20486;-69
2022/11/04 07:11:11;;;;;;;5.97;1.58;;;;;;;;;;5105751;27;20031;-71
2022/11/04 07:13:37;;;;;;;2.80;1.50;;;;;;;;;;5088543;28;22056;-70
2022/11/04 07:16:07;;;;;;;2.83;1.50;;;;;;;;;;5091840;28;20051;-71
2022/11/04 07:18:33;;;;;;;5.10;1.55;;;;;;;;;;5091427;27;20096;-70
2022/11/04 07:20:59;;;;;;;4.57;1.80;;;;;;;;;;5091583;28;20484;-69
2022/11/04 07:23:25;;;;;;;3.20;2.28;;;;;;;;;;5081707;28;20044;-73
2022/11/04 07:25:53;;;;;;;4.38;2.28;;;;;;;;;;5090126;27;20044;-72
2022/11/04 07:28:19;;;;;;;5.35;2.70;;;;;;;;;;5098867;27;20047;-68
2022/11/04 07:30:45;;;;;;;6.50;3.05;;;;;;;;;;5094076;28;20070;-68
2022/11/04 07:33:11;;;;;;;5.50;3.20;;;;;;;;;;5095826;27;20055;-68
2022/11/04 07:35:37;;;;;;;6.43;3.47;;;;;;;;;;5077545;28;20056;-69
2022/11/04 07:38:03;;;;;;;5.88;3.40;;;;;;;;;;5095873;27;20058;-68
2022/11/04 07:40:33;;;;;;;8.82;3.63;;;;;;;;;;5092670;28;20115;-69
2022/11/04 07:42:59;;;;;;;9.13;4.18;;;;;;;;;;5093244;28;20056;-71
2022/11/04 07:45:25;;;;;;;11.00;4.68;;;;;;;;;;5093077;28;20043;-67
2022/11/04 07:47:51;;;;;;;6.90;4.68;;;;;;;;;;5093144;28;20065;-68
2022/11/04 07:50:17;;;;;;;5.78;4.28;;;;;;;;;;5093934;28;20395;-67
2022/11/04 07:52:43;;;;;;;8.55;4.80;;;;;;;;;;5092110;27;20080;-67
2022/11/04 07:55:09;;;;;;;11.82;4.72;;;;;;;;;;5104035;27;20143;-68
2022/11/04 07:57:35;;;;;;;9.20;4.80;;;;;;;;;;5098443;27;20047;-68
2022/11/04 08:00:04;;;;;;;9.70;4.90;;;;;;;;;;5104317;27;20048;-69
2022/11/04 08:02:31;;;;;;;8.70;5.45;;;;;;;;;;5105400;27;20112;-68
2022/11/04 08:04:57;;;;;;;8.07;5.03;;;;;;;;;;5091427;28;20066;-69
2022/11/04 08:07:23;;;;;;;8.90;5.70;;;;;;;;;;5097315;28;20089;-69
2022/11/04 08:09:49;;;;;;;9.15;5.68;;;;;;;;;;5101139;27;20123;-68
2022/11/04 08:12:15;;;;;;;10.88;5.88;;;;;;;;;;5077778;28;20090;-68
2022/11/04 08:14:41;;;;;;;10.10;6.18;;;;;;;;;;5100216;28;20032;-70
2022/11/04 08:17:07;;;;;;;10.55;6.18;;;;;;;;;;5106833;28;20120;-68
2022/11/04 08:19:33;;;;;;;14.10;6.90;;;;;;;;;;5110403;28;20047;-68
2022/11/04 08:21:59;;;;;;;12.32;6.70;;;;;;;;;;5108284;28;20187;-68
2022/11/04 08:24:25;;;;;;;10.82;6.72;;;;;;;;;;5102665;28;20042;-70
2022/11/04 08:26:53;;;;;;;11.15;6.47;;;;;;;;;;5099259;28;20043;-67
2022/11/04 08:29:19;;;;;;;9.48;6.30;;;;;;;;;;5106077;28;20077;-67
2022/11/04 08:31:45;;;;;;;13.13;7.05;;;;;;;;;;5108826;28;20051;-68
2022/11/04 08:34:11;;;;;;;10.45;6.10;;;;;;;;;;5106774;28;20076;-70
2022/11/04 08:36:39;;;;;;;11.40;5.57;;;;;;;;;;5103044;28;20039;-69
2022/11/04 08:39:06;;;;;;;10.30;6.30;;;;;;;;;;5099842;28;20044;-69
2022/11/04 08:41:33;;;;;;;11.25;6.25;;;;;;;;;;5100204;27;20141;-69
2022/11/04 08:44:02;;;;;;;9.93;6.68;;;;;;;;;;5105380;28;20044;-70
2022/11/04 08:46:29;;;;;;;11.45;6.55;;;;;;;;;;5105031;28;20093;-67
2022/11/04 08:48:55;;;;;;;9.82;6.43;;;;;;;;;;5092840;28;20138;-68
2022/11/04 08:51:23;;;;;;;10.55;7.32;;;;;;;;;;5093795;28;20466;-69
2022/11/04 08:53:49;;;;;;;14.75;9.13;;;;;;;;;;5086527;28;20044;-68
2022/11/04 08:56:17;;;;;;;13.90;9.35;;;;;;;;;;5090989;28;20169;-70
2022/11/04 08:58:43;;;;;;;16.67;10.55;;;;;;;;;;5087572;28;20048;-68
2022/11/04 09:01:12;;;;;;;19.77;11.85;;;;;;;;;;5093399;28;20036;-67
2022/11/04 09:03:39;;;;;;;17.73;12.15;;;;;;;;;;5087957;28;20043;-69
2022/11/04 09:06:10;;;;;;;20.35;12.80;;;;;;;;;;5098262;28;20058;-71
2022/11/04 09:08:38;;;;;;;18.98;13.15;;;;;;;;;;5091487;28;20492;-67
2022/11/04 09:11:06;;;;;;;21.55;14.20;;;;;;;;;;5099646;28;20912;-71
2022/11/04 09:13:32;;;;;;;23.58;13.80;;;;;;;;;;5096629;27;20048;-70
2022/11/04 09:15:58;;;;;;;21.75;14.82;;;;;;;;;;5097522;27;20059;-71
2022/11/04 09:18:24;;;;;;;22.30;14.38;;;;;;;;;;5091580;28;20054;-70
2022/11/04 09:20:50;;;;;;;24.40;15.20;;;;;;;;;;5095723;28;20035;-70
2022/11/04 09:23:16;;;;;;;21.77;14.25;;;;;;;;;;5101146;27;20051;-71
2022/11/04 09:25:42;;;;;;;20.30;14.32;;;;;;;;;;5092512;28;20048;-68
2022/11/04 09:28:08;;;;;;;20.63;14.25;;;;;;;;;;5094682;27;20516;-70
2022/11/04 09:30:34;;;;;;;24.10;14.23;;;;;;;;;;5095480;27;20073;-70
2022/11/04 09:33:00;;;;;;;21.52;14.30;;;;;;;;;;5096028;27;20044;-71
2022/11/04 09:35:26;;;;;;;22.83;15.07;;;;;;;;;;5102214;27;20043;-70
2022/11/04 09:37:53;;;;;;;21.20;14.32;;;;;;;;;;5094618;27;20134;-70
2022/11/04 09:40:21;;;;;;;24.58;15.98;;;;;;;;;;5096994;27;20044;-70
2022/11/04 09:42:47;;;;;;;25.80;16.17;;;;;;;;;;5088247;28;20052;-69
2022/11/04 09:45:17;;;;;;;22.25;15.57;;;;;;;;;;5093497;27;20052;-71
2022/11/04 09:47:44;;;;;;;22.73;15.30;;;;;;;;;;5097511;28;20055;-68
2022/11/04 09:50:15;;;;;;;19.85;14.63;;;;;;;;;;5094844;28;20100;-70
2022/11/04 09:52:44;;;;;;;19.73;14.93;;;;;;;;;;5096412;27;20044;-68
2022/11/04 09:55:13;;;;;;;23.67;16.05;;;;;;;;;;5092779;28;20505;-69
2022/11/04 09:57:39;;;;;;;29.77;18.40;;;;;;;;;;5096342;27;20044;-69
2022/11/04 10:00:07;;;;;;;26.58;18.88;;;;;;;;;;5093193;28;20044;-68
2022/11/04 10:02:51;;;;;;;24.77;19.10;;;;;;;;;;5095893;27;20056;-70
2022/11/04 10:05:30;;;;;;;27.73;19.42;;;;;;;;;;5099072;27;20051;-70
2022/11/04 10:07:59;;;;;;;24.52;18.27;;;;;;;;;;5096683;27;20043;-70
2022/11/04 10:10:51;;;;;;;21.70;16.05;;;;;;;;;;5099079;28;20618;-70
2022/11/04 10:13:20;;;;;;;20.95;16.27;;;;;;;;;;5060017;27;20051;-70
2022/11/04 10:16:09;;;;;;;25.27;16.15;;;;;;;;;;5101442;27;20062;-70
2022/11/04 10:18:35;;;;;;;23.08;17.48;;;;;;;;;;5061342;28;20051;-68
2022/11/04 10:21:10;;;;;;;23.10;16.95;;;;;;;;;;5093939;28;20563;-68
2022/11/04 10:23:43;;;;;;;22.15;16.60;;;;;;;;;;5094271;27;20100;-70
2022/11/04 10:26:17;;;;;;;24.58;17.70;;;;;;;;;;5094457;28;20040;-70
2022/11/04 10:28:45;;;;;;;24.83;18.33;;;;;;;;;;5093256;28;20151;-70
2022/11/04 10:31:13;;;;;;;25.70;16.77;;;;;;;;;;5094793;28;20044;-70
2022/11/04 10:33:41;;;;;;;24.48;17.42;;;;;;;;;;5094890;27;20430;-67
2022/11/04 10:36:08;;;;;;;24.40;16.95;;;;;;;;;;5095882;28;20095;-71
2022/11/04 10:38:40;;;;;;;22.58;15.23;;;;;;;;;;5096681;27;20058;-70
2022/11/04 10:41:16;;;;;;;23.70;15.87;;;;;;;;;;5089605;27;20055;-67
2022/11/04 10:43:42;;;;;;;22.92;16.77;;;;;;;;;;5103023;28;20040;-70
2022/11/04 10:46:09;;;;;;;19.48;14.75;;;;;;;;;;5109299;27;20421;-68
2022/11/04 10:48:38;;;;;;;17.83;13.48;;;;;;;;;;5116429;27;20040;-68
2022/11/04 10:51:05;;;;;;;20.92;14.48;;;;;;;;;;5100851;27;20036;-67
2022/11/04 10:53:32;;;;;;;20.08;14.07;;;;;;;;;;5112018;27;20379;-67
2022/11/04 10:56:03;;;;;;;21.30;14.43;;;;;;;;;;5103750;27;20040;-67
2022/11/04 10:58:39;;;;;;;18.80;14.57;;;;;;;;;;5112100;27;20043;-69
2022/11/04 11:01:24;;;;;;;20.38;15.73;;;;;;;;;;5113351;27;20448;-66
2022/11/04 11:03:50;;;;;;;19.95;16.00;;;;;;;;;;5120782;27;20074;-66
2022/11/04 11:06:21;;;;;;;19.65;15.73;;;;;;;;;;5106777;27;20144;-67
2022/11/04 11:08:48;;;;;;;24.55;16.00;;;;;;;;;;5104827;27;20050;-66
2022/11/04 11:11:14;;;;;;;23.92;17.10;;;;;;;;;;5106970;27;20047;-66
2022/11/04 11:13:42;;;;;;;24.70;18.15;;;;;;;;;;5113779;27;20053;-67
2022/11/04 11:16:18;;;;;;;24.35;16.83;;;;;;;;;;5113367;27;20569;-66
2022/11/04 11:18:44;;;;;;;20.75;15.60;;;;;;;;;;5102305;27;20422;-68
2022/11/04 11:21:12;;;;;;;19.77;12.95;;;;;;;;;;5108496;27;20121;-68
2022/11/04 11:23:38;;;;;;;19.40;13.80;;;;;;;;;;5113159;27;20051;-67
2022/11/04 11:26:06;;;;;;;14.45;12.18;;;;;;;;;;5089363;28;20040;-66
2022/11/04 11:28:36;;;;;;;15.40;12.63;;;;;;;;;;5104340;28;20040;-67
2022/11/04 11:31:06;;;;;;;15.00;12.77;;;;;;;;;;5111642;27;20043;-66
2022/11/04 11:33:33;;;;;;;14.20;11.80;;;;;;;;;;5107451;27;20049;-67
2022/11/04 11:36:03;;;;;;;15.95;13.68;;;;;;;;;;5106490;27;20084;-66
2022/11/04 11:38:30;;;;;;;15.30;10.70;;;;;;;;;;5094195;28;20479;-68
2022/11/04 11:41:17;;;;;;;12.65;10.85;;;;;;;;;;5102142;28;20106;-68
2022/11/04 11:43:45;;;;;;;12.30;8.45;;;;;;;;;;5115489;27;20105;-66
2022/11/04 11:46:12;;;;;;;13.13;9.75;;;;;;;;;;5111602;27;20650;-67
2022/11/04 11:48:38;;;;;;;15.65;9.55;;;;;;;;;;5103781;27;20039;-68
2022/11/04 11:51:04;;;;;;;12.00;8.40;;;;;;;;;;5100252;27;20093;-66
2022/11/04 11:53:34;;;;;;;17.45;8.40;;;;;;;;;;5109756;27;20542;-66
2022/11/04 11:56:00;;;;;;;11.88;7.47;;;;;;;;;;5093449;27;20634;-66
2022/11/04 11:58:30;;;;;;;12.23;8.07;;;;;;;;;;5106349;27;20031;-66
2022/11/04 12:01:25;;;;;;;12.23;8.57;;;;;;;;;;5107824;28;20665;-67
2022/11/04 12:03:52;;;;;;;12.60;8.93;;;;;;;;;;5036891;28;20164;-66
2022/11/04 12:06:24;;;;;;;11.48;6.70;;;;;;;;;;5099466;28;20074;-66
2022/11/04 12:08:57;;;;;;;14.70;5.50;;;;;;;;;;5093544;28;20125;-68
2022/11/04 12:11:28;;;;;;;9.77;4.65;;;;;;;;;;5106909;28;20039;-70
2022/11/04 12:13:56;;;;;;;10.88;4.90;;;;;;;;;;5105599;28;20047;-66
2022/11/04 12:16:32;;;;;;;7.28;4.40;;;;;;;;;;5101364;28;20070;-67
2022/11/04 12:19:10;;;;;;;9.10;4.13;;;;;;;;;;5106227;28;20039;-67
2022/11/04 12:21:40;;;;;;;7.75;4.05;;;;;;;;;;5092646;28;20048;-67
2022/11/04 12:24:09;;;;;;;9.57;4.05;;;;;;;;;;5105441;28;21467;-66
2022/11/04 12:26:58;;;;;;;10.38;3.95;;;;;;;;;;5102424;28;20040;-66
2022/11/04 12:29:34;;;;;;;7.57;4.80;;;;;;;;;;5111216;28;20151;-67
2022/11/04 12:32:19;;;;;;;10.43;5.47;;;;;;;;;;5105542;28;20694;-69
2022/11/04 12:34:56;;;;;;;7.90;5.45;;;;;;;;;;5108284;28;20062;-67
2022/11/04 12:37:21;;;;;;;9.80;5.22;;;;;;;;;;5109371;28;20104;-67
2022/11/04 12:39:58;;;;;;;7.05;4.72;;;;;;;;;;5106359;28;20084;-66
2022/11/04 12:42:34;;;;;;;10.70;5.55;;;;;;;;;;5106675;27;20042;-67
2022/11/04 12:45:00;;;;;;;7.13;3.60;;;;;;;;;;5104741;27;20032;-70
2022/11/04 12:47:25;;;;;;;9.52;1.77;;;;;;;;;;5108037;27;20058;-72
2022/11/04 12:49:58;;;;;;;8.73;1.50;;;;;;;;;;5106112;28;20044;-72
2022/11/04 12:52:37;;;;;;;5.22;1.67;;;;;;;;;;5102288;27;20040;-71
2022/11/04 12:55:21;;;;;;;4.10;1.30;;;;;;;;;;5103375;27;20085;-69
2022/11/04 12:58:16;;;;;;;7.13;1.13;;;;;;;;;;5110528;27;20040;-72
2022/11/04 13:00:44;;;;;;;4.15;1.13;;;;;;;;;;5085778;28;20478;-70
2022/11/04 13:03:30;;;;;;;4.38;0.98;;;;;;;;;;5103155;27;20048;-72
2022/11/04 13:06:03;;;;;;;4.85;1.00;;;;;;;;;;5094848;28;20498;-70
2022/11/04 13:08:37;;;;;;;5.10;0.90;;;;;;;;;;5097582;27;20048;-70
2022/11/04 13:11:03;;;;;;;2.95;0.73;;;;;;;;;;5101469;27;20043;-71
2022/11/04 13:13:32;;;;;;;2.92;0.70;;;;;;;;;;5083417;27;20039;-70
2022/11/04 13:16:01;;;;;;;3.55;1.00;;;;;;;;;;5109041;27;20130;-69
2022/11/04 13:18:29;;;;;;;1.15;0.75;;;;;;;;;;5109897;27;20048;-75
2022/11/04 13:21:05;;;;;;;4.05;1.00;;;;;;;;;;5112202;27;20414;-72
2022/11/04 13:23:35;;;;;;;5.20;1.13;;;;;;;;;;5104925;28;20043;-72
2022/11/04 13:26:04;;;;;;;3.00;1.25;;;;;;;;;;5097780;28;20044;-72
2022/11/04 13:28:30;;;;;;;4.53;1.20;;;;;;;;;;5101848;28;20799;-72
2022/11/04 13:31:03;;;;;;;3.08;1.20;;;;;;;;;;5107132;28;20395;-72
2022/11/04 13:33:36;;;;;;;5.65;1.20;;;;;;;;;;5086177;28;20118;-71
2022/11/04 13:36:08;;;;;;;7.60;1.67;;;;;;;;;;5108358;28;20048;-71
2022/11/04 13:38:40;;;;;;;4.00;1.40;;;;;;;;;;5100990;28;20140;-71
2022/11/04 13:41:27;;;;;;;3.70;1.37;;;;;;;;;;5110970;28;20485;-71
2022/11/04 13:43:55;;;;;;;6.03;1.63;;;;;;;;;;5103678;28;20139;-71
2022/11/04 13:46:28;;;;;;;4.97;1.38;;;;;;;;;;5112383;27;20088;-72
2022/11/04 13:49:05;;;;;;;4.90;1.08;;;;;;;;;;5087847;28;20478;-73
2022/11/04 13:51:39;;;;;;;6.18;1.65;;;;;;;;;;5102160;28;20401;-72
2022/11/04 13:54:06;;;;;;;5.20;1.35;;;;;;;;;;5106152;27;20180;-72
2022/11/04 13:56:32;;;;;;;4.05;1.10;;;;;;;;;;5102849;28;20524;-72
2022/11/04 13:59:00;;;;;;;4.43;1.13;;;;;;;;;;5097971;27;20048;-72
2022/11/04 14:01:28;;;;;;;5.65;1.58;;;;;;;;;;5104401;28;20040;-72
2022/11/04 14:04:12;;;;;;;3.63;1.10;;;;;;;;;;5106393;28;20059;-71
2022/11/04 14:06:57;;;;;;;4.32;1.10;;;;;;;;;;5100184;28;20764;-74
2022/11/04 14:09:29;;;;;;;6.50;1.17;;;;;;;;;;5105197;27;20043;-70
2022/11/04 14:12:13;;;;;;;4.88;1.17;;;;;;;;;;5087253;28;20072;-72
2022/11/04 14:14:47;;;;;;;3.67;1.10;;;;;;;;;;5096899;28;20048;-72
2022/11/04 14:17:32;;;;;;;7.05;1.30;;;;;;;;;;5092870;28;20860;-72
2022/11/04 14:20:00;;;;;;;5.60;1.27;;;;;;;;;;5099257;28;20482;-72
2022/11/04 14:22:34;;;;;;;5.07;1.10;;;;;;;;;;5097102;28;20036;-72
2022/11/04 14:25:18;;;;;;;3.33;0.95;;;;;;;;;;5096435;28;20036;-72
2022/11/04 14:27:44;;;;;;;4.43;1.42;;;;;;;;;;5098564;28;20046;-72
2022/11/04 14:30:30;;;;;;;5.18;1.10;;;;;;;;;;5087944;28;20138;-73
2022/11/04 14:32:58;;;;;;;4.05;0.90;;;;;;;;;;5099216;28;20493;-72
2022/11/04 14:35:25;;;;;;;5.60;1.40;;;;;;;;;;5095802;28;20623;-73
2022/11/04 14:37:52;;;;;;;4.75;1.23;;;;;;;;;;5097465;28;20120;-72
2022/11/04 14:40:45;;;;;;;2.78;1.40;;;;;;;;;;5098079;28;20044;-72
2022/11/04 14:43:11;;;;;;;;;;;;;;;;;;5102457;28;20508;-72
2022/11/04 14:45:39;;;;;;;7.18;1.88;;;;;;;;;;5107767;27;19924;-72
2022/11/04 14:48:18;;;;;;;5.43;1.40;;;;;;;;;;5080908;28;20046;-73
2022/11/04 14:50:45;;;;;;;6.53;1.17;;;;;;;;;;5101953;28;20043;-72
2022/11/04 14:53:16;;;;;;;7.82;1.63;;;;;;;;;;5099280;28;20090;-75
2022/11/04 14:55:42;;;;;;;3.75;1.50;;;;;;;;;;5097351;28;20074;-73
2022/11/04 14:58:20;;;;;;;5.15;1.55;;;;;;;;;;5097103;28;20481;-73
2022/11/04 15:00:49;;;;;;;4.95;1.15;;;;;;;;;;5102619;28;20039;-73
2022/11/04 15:03:17;;;;;;;7.32;1.35;;;;;;;;;;5103473;28;20058;-73
2022/11/04 15:05:51;;;;;;;5.78;1.23;;;;;;;;;;5098155;28;20084;-71
2022/11/04 15:08:29;;;;;;;6.75;1.65;;;;;;;;;;5103885;28;20040;-74
2022/11/04 15:11:03;;;;;;;5.40;1.73;;;;;;;;;;5097382;28;20043;-73
2022/11/04 15:13:32;;;;;;;7.07;1.40;;;;;;;;;;5104922;28;20039;-72
2022/11/04 15:15:58;;;;;;;5.60;1.20;;;;;;;;;;5098275;28;20052;-74
2022/11/04 15:18:28;;;;;;;6.95;1.50;;;;;;;;;;5098227;28;20035;-74
2022/11/04 15:21:00;;;;;;;7.47;1.52;;;;;;;;;;5107062;28;20050;-74